sensor_id;sensor_type;location;lat;lon;timestamp;temperature;humidity
44773;DHT22;30492;52.088;5.122;2022-08-02T08:40:55;23.00;99.90
44773;DHT22;30492;52.088;5.122;2022-08-02T08:44:07;23.10;99.90
44773;DHT22;30492;52.088;5.122;2022-08-02T08:47:12;23.10;99.90
44773;DHT22;30492;52.088;5.122;2022-08-02T08:50:23;23.10;99.90
44773;DHT22;30492;52.088;5.122;2022-08-02T08:53:42;23.20;99.90
44773;DHT22;30492;52.088;5.122;2022-08-02T08:56:52;23.30;99.90
44773;DHT22;30492;52.088;5.122;2022-08-02T08:59:59;23.60;99.90
44773;DHT22;30492;52.088;5.122;2022-08-02T09:03:07;23.70;99.90
44773;DHT22;30492;52.088;5.122;2022-08-02T09:06:13;23.60;99.90
44773;DHT22;30492;52.088;5.122;2022-08-02T09:09:20;23.60;99.90
44773;DHT22;30492;52.088;5.122;2022-08-02T09:12:29;23.70;99.90
44773;DHT22;30492;52.088;5.122;2022-08-02T09:15:39;23.60;99.90
44773;DHT22;30492;52.088;5.122;2022-08-02T09:18:45;23.90;99.90
44773;DHT22;30492;52.088;5.122;2022-08-02T09:22:00;24.10;99.90
44773;DHT22;30492;52.088;5.122;2022-08-02T11:17:15;26.70;99.90
44773;DHT22;30492;52.088;5.122;2022-08-02T11:20:24;27.00;99.90
44773;DHT22;30492;52.088;5.122;2022-08-02T11:23:34;27.00;99.90
44773;DHT22;30492;52.088;5.122;2022-08-02T11:26:43;27.00;99.90
44773;DHT22;30492;52.088;5.122;2022-08-02T11:29:49;27.10;99.90
44773;DHT22;30492;52.088;5.122;2022-08-02T11:32:57;27.30;99.90
44773;DHT22;30492;52.088;5.122;2022-08-02T11:36:04;27.60;99.90
44773;DHT22;30492;52.088;5.122;2022-08-02T11:39:11;27.70;99.90
44773;DHT22;30492;52.088;5.122;2022-08-02T11:42:16;27.80;99.90
44773;DHT22;30492;52.088;5.122;2022-08-02T11:45:24;28.00;99.90
44773;DHT22;30492;52.088;5.122;2022-08-02T11:48:33;28.10;99.90
44773;DHT22;30492;52.088;5.122;2022-08-02T11:51:38;27.80;99.90
44773;DHT22;30492;52.088;5.122;2022-08-02T11:54:43;27.80;99.90
44773;DHT22;30492;52.088;5.122;2022-08-02T11:57:48;27.80;99.90
44773;DHT22;30492;52.088;5.122;2022-08-02T12:01:02;28.10;99.90
44773;DHT22;30492;52.088;5.122;2022-08-02T12:04:09;28.30;99.60
44773;DHT22;30492;52.088;5.122;2022-08-02T12:07:14;28.10;99.40
44773;DHT22;30492;52.088;5.122;2022-08-02T12:10:20;27.90;99.60
44773;DHT22;30492;52.088;5.122;2022-08-02T12:13:26;28.00;99.70
44773;DHT22;30492;52.088;5.122;2022-08-02T12:16:35;28.10;99.20
44773;DHT22;30492;52.088;5.122;2022-08-02T12:19:59;27.90;99.30
44773;DHT22;30492;52.088;5.122;2022-08-02T12:23:04;27.70;99.70
44773;DHT22;30492;52.088;5.122;2022-08-02T12:26:10;27.40;99.90
44773;DHT22;30492;52.088;5.122;2022-08-02T12:29:15;27.40;99.90
44773;DHT22;30492;52.088;5.122;2022-08-02T12:32:23;27.40;99.90
44773;DHT22;30492;52.088;5.122;2022-08-02T12:35:31;27.60;99.70
44773;DHT22;30492;52.088;5.122;2022-08-02T12:38:37;27.70;98.90
44773;DHT22;30492;52.088;5.122;2022-08-02T12:41:43;27.80;98.80
44773;DHT22;30492;52.088;5.122;2022-08-02T12:45:01;27.60;98.80
44773;DHT22;30492;52.088;5.122;2022-08-02T12:48:06;27.50;99.30
44773;DHT22;30492;52.088;5.122;2022-08-02T12:51:20;27.80;99.00
44773;DHT22;30492;52.088;5.122;2022-08-02T12:54:28;28.10;99.00
44773;DHT22;30492;52.088;5.122;2022-08-02T12:57:50;28.50;97.00
44773;DHT22;30492;52.088;5.122;2022-08-02T13:00:57;29.00;96.10
44773;DHT22;30492;52.088;5.122;2022-08-02T13:04:03;29.30;94.80
44773;DHT22;30492;52.088;5.122;2022-08-02T13:07:10;29.50;94.60
44773;DHT22;30492;52.088;5.122;2022-08-02T13:10:16;29.50;94.30
44773;DHT22;30492;52.088;5.122;2022-08-02T13:13:21;29.40;93.60
44773;DHT22;30492;52.088;5.122;2022-08-02T13:16:26;29.10;93.50
44773;DHT22;30492;52.088;5.122;2022-08-02T13:19:33;28.60;94.40
44773;DHT22;30492;52.088;5.122;2022-08-02T13:22:41;28.70;94.80
44773;DHT22;30492;52.088;5.122;2022-08-02T13:25:46;28.80;94.70
44773;DHT22;30492;52.088;5.122;2022-08-02T13:28:51;29.30;94.40
44773;DHT22;30492;52.088;5.122;2022-08-02T13:31:56;28.90;93.50
44773;DHT22;30492;52.088;5.122;2022-08-02T13:35:01;28.70;94.10
44773;DHT22;30492;52.088;5.122;2022-08-02T13:38:10;28.40;94.80
44773;DHT22;30492;52.088;5.122;2022-08-02T13:41:16;28.40;95.40
44773;DHT22;30492;52.088;5.122;2022-08-02T13:44:21;28.70;96.30
44773;DHT22;30492;52.088;5.122;2022-08-02T13:47:27;28.70;96.60
44773;DHT22;30492;52.088;5.122;2022-08-02T13:50:32;28.70;96.80
44773;DHT22;30492;52.088;5.122;2022-08-02T13:53:39;28.70;97.20
44773;DHT22;30492;52.088;5.122;2022-08-02T13:56:45;28.90;97.00
44773;DHT22;30492;52.088;5.122;2022-08-02T13:59:50;29.30;97.20
44773;DHT22;30492;52.088;5.122;2022-08-02T14:02:55;29.50;96.90
44773;DHT22;30492;52.088;5.122;2022-08-02T14:06:00;29.50;96.50
44773;DHT22;30492;52.088;5.122;2022-08-02T14:09:06;29.70;96.80
44773;DHT22;30492;52.088;5.122;2022-08-02T14:12:12;29.70;96.80
44773;DHT22;30492;52.088;5.122;2022-08-02T14:15:18;29.60;96.90
44773;DHT22;30492;52.088;5.122;2022-08-02T14:18:22;29.40;96.70
44773;DHT22;30492;52.088;5.122;2022-08-02T14:21:27;29.30;97.20
44773;DHT22;30492;52.088;5.122;2022-08-02T14:24:34;29.40;97.50
44773;DHT22;30492;52.088;5.122;2022-08-02T14:27:39;28.90;97.30
44773;DHT22;30492;52.088;5.122;2022-08-02T14:30:44;28.60;98.20
44773;DHT22;30492;52.088;5.122;2022-08-02T14:33:49;28.50;98.70
44773;DHT22;30492;52.088;5.122;2022-08-02T14:36:54;28.60;98.80
44773;DHT22;30492;52.088;5.122;2022-08-02T14:40:01;28.80;98.90
44773;DHT22;30492;52.088;5.122;2022-08-02T14:43:05;29.00;98.60
44773;DHT22;30492;52.088;5.122;2022-08-02T14:46:10;29.10;98.90
44773;DHT22;30492;52.088;5.122;2022-08-02T14:49:16;29.40;98.80
44773;DHT22;30492;52.088;5.122;2022-08-02T14:52:21;29.30;98.90
44773;DHT22;30492;52.088;5.122;2022-08-02T14:55:27;29.20;98.60
44773;DHT22;30492;52.088;5.122;2022-08-02T14:58:32;29.10;99.10
44773;DHT22;30492;52.088;5.122;2022-08-02T15:01:38;29.10;99.40
44773;DHT22;30492;52.088;5.122;2022-08-02T15:04:43;29.40;99.00
44773;DHT22;30492;52.088;5.122;2022-08-02T15:07:48;29.50;99.00
44773;DHT22;30492;52.088;5.122;2022-08-02T15:10:54;29.40;99.00
44773;DHT22;30492;52.088;5.122;2022-08-02T15:13:59;29.40;99.20
44773;DHT22;30492;52.088;5.122;2022-08-02T15:17:05;29.30;99.20
44773;DHT22;30492;52.088;5.122;2022-08-02T15:20:11;29.10;99.30
44773;DHT22;30492;52.088;5.122;2022-08-02T15:23:16;29.10;99.70
44773;DHT22;30492;52.088;5.122;2022-08-02T15:26:23;29.00;99.80
44773;DHT22;30492;52.088;5.122;2022-08-02T15:29:32;29.10;99.90
44773;DHT22;30492;52.088;5.122;2022-08-02T15:32:38;29.00;99.90
44773;DHT22;30492;52.088;5.122;2022-08-02T15:35:42;29.10;99.90
44773;DHT22;30492;52.088;5.122;2022-08-02T15:38:47;28.90;99.90
44773;DHT22;30492;52.088;5.122;2022-08-02T15:41:54;28.90;99.90
44773;DHT22;30492;52.088;5.122;2022-08-02T15:44:59;28.70;99.90
44773;DHT22;30492;52.088;5.122;2022-08-02T15:48:05;28.70;99.90
44773;DHT22;30492;52.088;5.122;2022-08-02T15:51:10;28.80;99.90
44773;DHT22;30492;52.088;5.122;2022-08-02T15:54:15;28.70;99.90
44773;DHT22;30492;52.088;5.122;2022-08-02T15:57:21;28.50;99.90
44773;DHT22;30492;52.088;5.122;2022-08-02T16:00:25;28.20;99.90
44773;DHT22;30492;52.088;5.122;2022-08-02T16:03:32;28.10;99.90
44773;DHT22;30492;52.088;5.122;2022-08-02T16:06:43;28.30;99.90
44773;DHT22;30492;52.088;5.122;2022-08-02T16:09:48;28.40;99.90
44773;DHT22;30492;52.088;5.122;2022-08-02T16:12:54;28.30;99.90
44773;DHT22;30492;52.088;5.122;2022-08-02T16:16:20;28.20;99.90
44773;DHT22;30492;52.088;5.122;2022-08-02T16:19:25;28.10;99.90
44773;DHT22;30492;52.088;5.122;2022-08-02T16:22:31;28.00;99.90
44773;DHT22;30492;52.088;5.122;2022-08-02T16:25:37;28.10;99.90
44773;DHT22;30492;52.088;5.122;2022-08-02T16:28:46;28.20;99.90
44773;DHT22;30492;52.088;5.122;2022-08-02T16:31:51;28.30;99.90
44773;DHT22;30492;52.088;5.122;2022-08-02T16:34:56;28.30;99.90
44773;DHT22;30492;52.088;5.122;2022-08-02T16:38:03;28.20;99.90
44773;DHT22;30492;52.088;5.122;2022-08-02T16:41:08;28.20;99.90
44773;DHT22;30492;52.088;5.122;2022-08-02T16:44:15;28.20;99.90
44773;DHT22;30492;52.088;5.122;2022-08-02T16:47:20;28.20;99.90
44773;DHT22;30492;52.088;5.122;2022-08-02T16:50:25;28.10;99.90
44773;DHT22;30492;52.088;5.122;2022-08-02T16:53:31;28.00;99.90
44773;DHT22;30492;52.088;5.122;2022-08-02T16:56:37;28.00;99.90
44773;DHT22;30492;52.088;5.122;2022-08-02T16:59:43;28.00;99.90
44773;DHT22;30492;52.088;5.122;2022-08-02T17:02:48;27.90;99.90
44773;DHT22;30492;52.088;5.122;2022-08-02T17:05:54;27.60;99.90
44773;DHT22;30492;52.088;5.122;2022-08-02T17:08:59;27.60;99.90
44773;DHT22;30492;52.088;5.122;2022-08-02T17:12:04;27.60;99.90
44773;DHT22;30492;52.088;5.122;2022-08-02T17:15:10;27.50;99.90
44773;DHT22;30492;52.088;5.122;2022-08-02T17:18:16;27.30;99.90
44773;DHT22;30492;52.088;5.122;2022-08-02T17:21:21;27.20;99.90
44773;DHT22;30492;52.088;5.122;2022-08-02T17:24:26;27.10;99.90
44773;DHT22;30492;52.088;5.122;2022-08-02T17:27:31;27.20;99.90
44773;DHT22;30492;52.088;5.122;2022-08-02T17:30:37;27.20;99.90
44773;DHT22;30492;52.088;5.122;2022-08-02T17:33:42;27.00;99.90
44773;DHT22;30492;52.088;5.122;2022-08-02T17:36:47;27.00;99.90
44773;DHT22;30492;52.088;5.122;2022-08-02T17:39:52;27.00;99.90
44773;DHT22;30492;52.088;5.122;2022-08-02T17:42:58;27.00;99.90
44773;DHT22;30492;52.088;5.122;2022-08-02T17:46:04;27.00;99.90
44773;DHT22;30492;52.088;5.122;2022-08-02T17:49:10;26.90;99.90
44773;DHT22;30492;52.088;5.122;2022-08-02T17:52:23;26.70;99.90
44773;DHT22;30492;52.088;5.122;2022-08-02T17:55:28;26.60;99.90
44773;DHT22;30492;52.088;5.122;2022-08-02T17:58:34;26.70;99.90
44773;DHT22;30492;52.088;5.122;2022-08-02T18:01:41;26.50;99.90
44773;DHT22;30492;52.088;5.122;2022-08-02T18:04:48;26.40;99.90
44773;DHT22;30492;52.088;5.122;2022-08-02T18:07:53;26.50;99.90
44773;DHT22;30492;52.088;5.122;2022-08-02T18:10:59;26.60;99.90
44773;DHT22;30492;52.088;5.122;2022-08-02T18:14:03;26.70;99.90
44773;DHT22;30492;52.088;5.122;2022-08-02T18:17:10;26.70;99.90
44773;DHT22;30492;52.088;5.122;2022-08-02T18:20:15;26.70;99.90
44773;DHT22;30492;52.088;5.122;2022-08-02T18:23:20;26.70;99.90
44773;DHT22;30492;52.088;5.122;2022-08-02T18:26:26;26.70;99.90
44773;DHT22;30492;52.088;5.122;2022-08-02T18:29:32;26.70;99.90
44773;DHT22;30492;52.088;5.122;2022-08-02T18:32:38;26.70;99.90
44773;DHT22;30492;52.088;5.122;2022-08-02T18:35:44;26.70;99.90
44773;DHT22;30492;52.088;5.122;2022-08-02T18:38:49;26.70;99.90
44773;DHT22;30492;52.088;5.122;2022-08-02T18:41:54;26.70;99.90
44773;DHT22;30492;52.088;5.122;2022-08-02T18:44:59;26.50;99.90
44773;DHT22;30492;52.088;5.122;2022-08-02T18:48:06;26.50;99.90
44773;DHT22;30492;52.088;5.122;2022-08-02T18:51:11;26.40;99.90
44773;DHT22;30492;52.088;5.122;2022-08-02T18:54:16;26.40;99.90
44773;DHT22;30492;52.088;5.122;2022-08-02T18:57:22;26.40;99.90
44773;DHT22;30492;52.088;5.122;2022-08-02T19:00:27;26.40;99.90
44773;DHT22;30492;52.088;5.122;2022-08-02T19:03:33;26.40;99.90
44773;DHT22;30492;52.088;5.122;2022-08-02T19:06:39;26.30;99.90
44773;DHT22;30492;52.088;5.122;2022-08-02T19:09:44;26.30;99.90
44773;DHT22;30492;52.088;5.122;2022-08-02T19:12:49;26.30;99.90
44773;DHT22;30492;52.088;5.122;2022-08-02T19:15:54;26.10;99.90
44773;DHT22;30492;52.088;5.122;2022-08-02T19:19:01;26.00;99.90
44773;DHT22;30492;52.088;5.122;2022-08-02T19:22:07;25.80;99.90
44773;DHT22;30492;52.088;5.122;2022-08-02T19:25:12;25.70;99.90
44773;DHT22;30492;52.088;5.122;2022-08-02T19:28:17;25.60;99.90
44773;DHT22;30492;52.088;5.122;2022-08-02T19:31:22;25.60;99.90
44773;DHT22;30492;52.088;5.122;2022-08-02T19:34:28;25.40;99.90
44773;DHT22;30492;52.088;5.122;2022-08-02T19:37:34;25.30;99.90
44773;DHT22;30492;52.088;5.122;2022-08-02T19:40:42;25.20;99.90
44773;DHT22;30492;52.088;5.122;2022-08-02T19:43:47;25.20;99.90
44773;DHT22;30492;52.088;5.122;2022-08-02T19:46:52;25.30;99.90
44773;DHT22;30492;52.088;5.122;2022-08-02T19:49:59;25.10;99.90
44773;DHT22;30492;52.088;5.122;2022-08-02T19:53:04;24.90;99.90
44773;DHT22;30492;52.088;5.122;2022-08-02T19:56:08;24.70;99.90
44773;DHT22;30492;52.088;5.122;2022-08-02T19:59:14;24.70;99.90
44773;DHT22;30492;52.088;5.122;2022-08-02T20:02:19;24.50;99.90
44773;DHT22;30492;52.088;5.122;2022-08-02T20:05:26;24.50;99.90
44773;DHT22;30492;52.088;5.122;2022-08-02T20:08:31;24.20;99.90
44773;DHT22;30492;52.088;5.122;2022-08-02T20:11:37;24.20;99.90
44773;DHT22;30492;52.088;5.122;2022-08-02T20:14:42;24.30;99.90
44773;DHT22;30492;52.088;5.122;2022-08-02T20:17:47;24.30;99.90
44773;DHT22;30492;52.088;5.122;2022-08-02T20:20:54;24.30;99.90
44773;DHT22;30492;52.088;5.122;2022-08-02T20:23:59;24.20;99.90
44773;DHT22;30492;52.088;5.122;2022-08-02T20:27:04;23.90;99.90
44773;DHT22;30492;52.088;5.122;2022-08-02T20:30:10;23.90;99.90
44773;DHT22;30492;52.088;5.122;2022-08-02T20:33:15;23.90;99.90
44773;DHT22;30492;52.088;5.122;2022-08-02T20:36:26;23.90;99.90
44773;DHT22;30492;52.088;5.122;2022-08-02T20:39:44;23.90;99.90
44773;DHT22;30492;52.088;5.122;2022-08-02T20:42:50;23.80;99.90
44773;DHT22;30492;52.088;5.122;2022-08-02T20:45:55;23.60;99.90
44773;DHT22;30492;52.088;5.122;2022-08-02T20:49:00;23.50;99.90
44773;DHT22;30492;52.088;5.122;2022-08-02T20:52:06;23.30;99.90
44773;DHT22;30492;52.088;5.122;2022-08-02T20:55:11;23.40;99.90
44773;DHT22;30492;52.088;5.122;2022-08-02T20:58:17;23.40;99.90
44773;DHT22;30492;52.088;5.122;2022-08-02T21:01:38;23.50;99.90
44773;DHT22;30492;52.088;5.122;2022-08-02T21:04:43;23.60;99.90
44773;DHT22;30492;52.088;5.122;2022-08-02T21:07:52;23.50;99.90
44773;DHT22;30492;52.088;5.122;2022-08-02T21:10:57;23.40;99.90
44773;DHT22;30492;52.088;5.122;2022-08-02T21:14:03;23.20;99.90
44773;DHT22;30492;52.088;5.122;2022-08-02T21:17:08;23.10;99.90
44773;DHT22;30492;52.088;5.122;2022-08-02T21:20:13;23.10;99.90
44773;DHT22;30492;52.088;5.122;2022-08-02T21:23:20;23.00;99.90
44773;DHT22;30492;52.088;5.122;2022-08-02T21:26:33;22.90;99.90
44773;DHT22;30492;52.088;5.122;2022-08-02T21:29:40;22.80;99.90
44773;DHT22;30492;52.088;5.122;2022-08-02T21:32:45;22.70;99.90
44773;DHT22;30492;52.088;5.122;2022-08-02T21:35:53;22.60;99.90
44773;DHT22;30492;52.088;5.122;2022-08-02T21:39:03;22.40;99.90
44773;DHT22;30492;52.088;5.122;2022-08-02T21:42:08;22.40;99.90
44773;DHT22;30492;52.088;5.122;2022-08-02T21:45:13;22.40;99.90
44773;DHT22;30492;52.088;5.122;2022-08-02T21:48:19;22.40;99.90
44773;DHT22;30492;52.088;5.122;2022-08-02T21:51:24;22.50;99.90
44773;DHT22;30492;52.088;5.122;2022-08-02T21:54:30;22.50;99.90
44773;DHT22;30492;52.088;5.122;2022-08-02T21:57:36;22.40;99.90
44773;DHT22;30492;52.088;5.122;2022-08-02T22:00:41;22.50;99.90
44773;DHT22;30492;52.088;5.122;2022-08-02T22:03:46;22.40;99.90
44773;DHT22;30492;52.088;5.122;2022-08-02T22:06:51;22.50;99.90
44773;DHT22;30492;52.088;5.122;2022-08-02T22:09:58;22.30;99.90
44773;DHT22;30492;52.088;5.122;2022-08-02T22:13:03;22.30;99.90
44773;DHT22;30492;52.088;5.122;2022-08-02T22:16:08;22.30;99.90
44773;DHT22;30492;52.088;5.122;2022-08-02T22:19:15;22.30;99.90
44773;DHT22;30492;52.088;5.122;2022-08-02T22:22:21;22.20;99.90
44773;DHT22;30492;52.088;5.122;2022-08-02T22:25:28;22.10;99.90
44773;DHT22;30492;52.088;5.122;2022-08-02T22:28:33;22.10;99.90
44773;DHT22;30492;52.088;5.122;2022-08-02T22:31:38;22.10;99.90
44773;DHT22;30492;52.088;5.122;2022-08-02T22:34:43;22.20;99.90
44773;DHT22;30492;52.088;5.122;2022-08-02T22:37:47;22.10;99.90
44773;DHT22;30492;52.088;5.122;2022-08-02T22:40:53;22.20;99.90
44773;DHT22;30492;52.088;5.122;2022-08-02T22:43:59;22.00;99.90
44773;DHT22;30492;52.088;5.122;2022-08-02T22:47:06;21.90;99.90
44773;DHT22;30492;52.088;5.122;2022-08-02T22:50:11;21.90;99.90
44773;DHT22;30492;52.088;5.122;2022-08-02T22:53:16;21.90;99.90
44773;DHT22;30492;52.088;5.122;2022-08-02T22:56:23;22.00;99.90
44773;DHT22;30492;52.088;5.122;2022-08-02T22:59:30;21.90;99.90
44773;DHT22;30492;52.088;5.122;2022-08-02T23:02:36;22.00;99.90
44773;DHT22;30492;52.088;5.122;2022-08-02T23:05:41;22.00;99.90
44773;DHT22;30492;52.088;5.122;2022-08-02T23:08:46;22.00;99.90
44773;DHT22;30492;52.088;5.122;2022-08-02T23:11:52;21.90;99.90
44773;DHT22;30492;52.088;5.122;2022-08-02T23:14:57;21.80;99.90
44773;DHT22;30492;52.088;5.122;2022-08-02T23:18:03;21.80;99.90
44773;DHT22;30492;52.088;5.122;2022-08-02T23:21:25;21.70;99.90
44773;DHT22;30492;52.088;5.122;2022-08-02T23:24:35;21.50;99.90
44773;DHT22;30492;52.088;5.122;2022-08-02T23:27:41;21.50;99.90
44773;DHT22;30492;52.088;5.122;2022-08-02T23:30:47;21.60;99.90
44773;DHT22;30492;52.088;5.122;2022-08-02T23:33:53;21.50;99.90
44773;DHT22;30492;52.088;5.122;2022-08-02T23:36:58;21.40;99.90
44773;DHT22;30492;52.088;5.122;2022-08-02T23:40:04;21.40;99.90
44773;DHT22;30492;52.088;5.122;2022-08-02T23:43:16;21.40;99.90
44773;DHT22;30492;52.088;5.122;2022-08-02T23:46:22;21.40;99.90
44773;DHT22;30492;52.088;5.122;2022-08-02T23:49:27;21.40;99.90
44773;DHT22;30492;52.088;5.122;2022-08-02T23:52:32;21.30;99.90
44773;DHT22;30492;52.088;5.122;2022-08-02T23:55:37;21.10;99.90
44773;DHT22;30492;52.088;5.122;2022-08-02T23:58:43;21.10;99.90
